Time;durP1;ratioP1;P1;durP2;ratioP2;P2;SDS_P1;SDS_P2;PMS_P1;PMS_P2;Temp;Humidity;BMP_temperature;BMP_pressure;BME280_temperature;BME280_humidity;BME280_pressure;Samples;Min_cycle;Max_cycle;Signal;HPM_P1;HPM_P2
2022/06/19 00:00:56;;;;;;;21.00;9.80;;;;;;;13.26;71.79;99767.09;108635;1282;22486;-56
2022/06/19 00:03:26;;;;;;;20.10;9.40;;;;;;;13.24;71.99;99768.78;108650;1282;22533;-56
2022/06/19 00:05:53;;;;;;;16.20;8.70;;;;;;;13.21;71.99;99767.56;108442;1282;138704;-56
2022/06/19 00:08:20;;;;;;;13.60;7.40;;;;;;;13.18;72.12;99770.17;108532;1282;22509;-56
2022/06/19 00:10:48;;;;;;;12.30;8.00;;;;;;;13.15;72.36;99765.34;108515;1281;140311;-56
2022/06/19 00:13:15;;;;;;;14.00;7.90;;;;;;;13.14;72.58;99770.61;108611;1283;22449;-56
2022/06/19 00:15:42;;;;;;;16.00;8.40;;;;;;;13.14;72.44;99767.34;108553;1283;23238;-56
2022/06/19 00:18:09;;;;;;;8.60;6.50;;;;;;;13.13;72.54;99769.20;108398;1283;140854;-56
2022/06/19 00:20:38;;;;;;;12.70;7.40;;;;;;;13.11;72.58;99775.05;108558;1283;22532;-56
2022/06/19 00:23:05;;;;;;;13.50;6.90;;;;;;;13.09;72.92;99772.86;109333;1274;138353;-56
2022/06/19 00:25:31;;;;;;;12.00;7.30;;;;;;;13.09;72.72;99770.95;109392;1274;22537;-55
2022/06/19 00:27:58;;;;;;;9.90;6.10;;;;;;;13.08;72.59;99774.28;109467;1274;22467;-56
2022/06/19 00:30:25;;;;;;;10.20;6.90;;;;;;;13.07;72.64;99774.38;109292;1274;138864;-56
2022/06/19 00:32:52;;;;;;;11.60;6.70;;;;;;;13.05;72.79;99772.34;109479;1274;22444;-56
2022/06/19 00:35:19;;;;;;;9.00;6.50;;;;;;;13.03;72.71;99767.24;109290;1276;137979;-55
2022/06/19 00:37:46;;;;;;;11.00;6.00;;;;;;;13.02;72.69;99769.70;109448;1274;22471;-56
2022/06/19 00:40:13;;;;;;;13.00;6.50;;;;;;;13.02;72.80;99771.66;109457;1274;22538;-56
2022/06/19 00:42:40;;;;;;;15.30;6.60;;;;;;;13.04;72.93;99772.02;109336;1274;137951;-55
2022/06/19 00:45:25;;;;;;;8.70;6.00;;;;;;;13.05;72.83;99776.72;109435;1272;22232;-56
2022/06/19 00:47:52;;;;;;;13.10;6.10;;;;;;;13.07;72.94;99774.22;109274;1274;138107;-56
2022/06/19 00:50:20;;;;;;;12.20;6.20;;;;;;;13.10;72.77;99773.63;109307;1274;22479;-56
2022/06/19 00:52:47;;;;;;;12.10;6.70;;;;;;;13.14;72.52;99777.36;109374;1274;138085;-56
2022/06/19 00:55:25;;;;;;;10.00;5.80;;;;;;;13.16;72.34;99776.07;109387;1274;22474;-56
2022/06/19 00:58:03;;;;;;;9.30;5.60;;;;;;;13.18;72.24;99774.45;109327;1274;22557;-56
2022/06/19 01:00:30;;;;;;;13.40;6.70;;;;;;;13.19;72.23;99781.02;109192;1274;137787;-56
2022/06/19 01:03:16;;;;;;;12.30;6.40;;;;;;;13.19;72.21;99776.74;109171;1276;22523;-55
2022/06/19 01:05:44;;;;;;;12.20;6.50;;;;;;;13.19;72.09;99775.70;109218;1276;138242;-55
2022/06/19 01:08:11;;;;;;;11.70;5.70;;;;;;;13.20;71.93;99770.78;109364;1273;22444;-55
2022/06/19 01:10:40;;;;;;;13.40;6.70;;;;;;;13.21;71.94;99770.18;109154;1276;138453;-56
2022/06/19 01:13:07;;;;;;;13.70;6.50;;;;;;;13.22;71.79;99769.05;109104;1274;23640;-56
2022/06/19 01:15:34;;;;;;;9.90;5.90;;;;;;;13.24;71.77;99770.31;109417;1274;22545;-57
2022/06/19 01:18:03;;;;;;;11.90;5.60;;;;;;;13.25;71.65;99767.42;109362;1274;139712;-57
2022/06/19 01:20:31;;;;;;;7.10;5.10;;;;;;;13.24;71.62;99767.35;109499;1274;22503;-56
2022/06/19 01:23:36;;;;;;;12.00;5.80;;;;;;;13.23;71.42;99770.85;109235;1274;139697;-57
2022/06/19 01:26:03;;;;;;;12.40;5.90;;;;;;;13.20;71.51;99768.11;109440;1272;22446;-56
2022/06/19 01:31:19;;;;;;;7.90;4.80;;;;;;;13.15;71.75;99768.30;109340;1274;22468;-56
2022/06/19 01:33:52;;;;;;;8.70;4.80;;;;;;;13.15;71.60;99771.35;109343;1274;23083;-55
2022/06/19 01:36:20;;;;;;;6.70;4.90;;;;;;;13.14;71.76;99771.06;109249;1275;138089;-56
2022/06/19 01:38:49;;;;;;;6.90;5.10;;;;;;;13.14;71.81;99776.26;109295;1274;22475;-56
2022/06/19 01:41:27;;;;;;;9.90;5.40;;;;;;;13.13;71.70;99769.57;109222;1274;137803;-57
2022/06/19 01:43:53;;;;;;;6.40;4.70;;;;;;;13.14;71.53;99769.98;109365;1274;22489;-56
2022/06/19 01:46:20;;;;;;;8.10;4.70;;;;;;;13.15;71.53;99771.73;109457;1274;23190;-56
2022/06/19 01:48:47;;;;;;;6.30;4.80;;;;;;;13.16;71.67;99771.04;109326;1274;137671;-57
2022/06/19 01:51:14;;;;;;;9.50;5.10;;;;;;;13.18;71.69;99775.64;109448;1274;22433;-57
2022/06/19 01:53:44;;;;;;;9.30;5.10;;;;;;;13.17;71.72;99774.27;109174;1277;138234;-56
2022/06/19 01:56:11;;;;;;;6.60;4.50;;;;;;;13.18;71.99;99778.92;109453;1274;22420;-56
2022/06/19 01:58:43;;;;;;;8.60;4.90;;;;;;;13.19;72.19;99774.39;109277;1274;138064;-57
2022/06/19 02:01:10;;;;;;;7.90;4.70;;;;;;;13.19;72.59;99771.92;109313;1274;23283;-57
2022/06/19 02:03:47;;;;;;;6.90;4.40;;;;;;;13.21;72.81;99771.93;109466;1274;22521;-57
2022/06/19 02:06:16;;;;;;;9.30;5.20;;;;;;;13.26;73.02;99771.79;109366;1274;139854;-57
2022/06/19 02:08:43;;;;;;;10.40;5.10;;;;;;;13.28;73.43;99770.36;109466;1274;22255;-56
2022/06/19 02:11:13;;;;;;;8.20;5.10;;;;;;;13.34;73.84;99775.20;109199;1274;138631;-56
2022/06/19 02:13:40;;;;;;;6.50;4.50;;;;;;;13.40;74.08;99777.69;109328;1274;22456;-56
2022/06/19 02:16:13;;;;;;;14.10;4.60;;;;;;;13.47;73.83;99777.74;109170;1277;22561;-56
2022/06/19 02:18:41;;;;;;;9.10;4.60;;;;;;;13.55;73.78;99782.64;109186;1274;139021;-56
2022/06/19 02:21:13;;;;;;;7.10;4.70;;;;;;;13.64;73.47;99782.50;109418;1274;22246;-57
2022/06/19 02:23:40;;;;;;;7.10;4.90;;;;;;;13.73;72.98;99779.42;109200;1276;139047;-57
2022/06/19 02:26:09;;;;;;;6.30;5.00;;;;;;;13.82;72.94;99783.72;109352;1274;22502;-57
2022/06/19 02:28:37;;;;;;;7.10;4.30;;;;;;;13.90;72.86;99783.98;109276;1274;138568;-56
2022/06/19 02:31:06;;;;;;;4.90;4.10;;;;;;;13.99;72.99;99785.42;109358;1274;22488;-56
2022/06/19 02:33:50;;;;;;;6.60;4.80;;;;;;;14.05;72.74;99781.09;109036;1277;22485;-56
2022/06/19 02:36:39;;;;;;;8.00;4.80;;;;;;;14.13;72.53;99784.11;109185;1274;137887;-56
2022/06/19 02:39:17;;;;;;;5.40;4.20;;;;;;;14.18;72.32;99783.81;109489;1274;22397;-50
2022/06/19 02:41:49;;;;;;;7.30;4.40;;;;;;;14.22;72.38;99785.08;109250;1274;138369;-56
2022/06/19 02:44:16;;;;;;;7.50;4.60;;;;;;;14.25;72.29;99789.20;109317;1274;23205;-56
2022/06/19 02:46:43;;;;;;;8.70;4.30;;;;;;;14.26;72.42;99786.63;109377;1274;139687;-56
2022/06/19 02:49:10;;;;;;;6.30;3.90;;;;;;;14.26;72.54;99789.25;109328;1274;22416;-56
2022/06/19 02:51:40;;;;;;;5.90;4.20;;;;;;;14.27;72.48;99785.53;109414;1274;22574;-56
2022/06/19 02:54:06;;;;;;;5.80;4.50;;;;;;;14.27;72.60;99784.66;109321;1273;140065;-57
2022/06/19 02:56:33;;;;;;;8.80;3.80;;;;;;;14.30;72.54;99782.20;109317;1274;22671;-57
2022/06/19 02:59:00;;;;;;;5.80;4.30;;;;;;;14.32;72.12;99782.32;109322;1274;138845;-56
2022/06/19 03:01:27;;;;;;;6.10;4.40;;;;;;;14.35;71.79;99779.52;109452;1274;23129;-57
2022/06/19 03:03:53;;;;;;;5.70;4.20;;;;;;;14.40;71.61;99783.83;109390;1274;22396;-56
2022/06/19 03:06:20;;;;;;;7.30;4.60;;;;;;;14.46;71.53;99779.64;109351;1274;138047;-56
2022/06/19 03:08:47;;;;;;;7.60;4.10;;;;;;;14.52;71.18;99777.67;109434;1274;22535;-55
2022/06/19 03:11:14;;;;;;;5.70;4.20;;;;;;;14.59;71.18;99772.54;109200;1274;138427;-55
2022/06/19 03:13:41;;;;;;;6.40;4.70;;;;;;;14.65;71.29;99765.89;109437;1274;22379;-55
2022/06/19 03:16:09;;;;;;;5.90;4.20;;;;;;;14.72;71.10;99759.02;107704;1274;23046;-55
2022/06/19 03:18:36;;;;;;;11.20;4.30;;;;;;;14.78;70.94;99759.81;104857;1277;139368;-55
2022/06/19 03:21:03;;;;;;;4.10;3.50;;;;;;;14.86;70.90;99760.90;105111;1274;23114;-56
2022/06/19 03:23:31;;;;;;;5.10;4.00;;;;;;;14.93;70.76;99761.69;105009;1274;138755;-55
2022/06/19 03:25:57;;;;;;;6.50;4.00;;;;;;;15.00;70.62;99764.17;105141;1274;24207;-55
2022/06/19 03:28:24;;;;;;;4.50;3.60;;;;;;;15.07;70.52;99764.09;105030;1277;22640;-55
2022/06/19 03:30:53;;;;;;;8.10;3.60;;;;;;;15.14;70.32;99765.54;105086;1274;138756;-55
2022/06/19 03:33:21;;;;;;;6.80;3.40;;;;;;;15.22;70.62;99761.33;109450;1274;22475;-56
2022/06/19 03:35:47;;;;;;;6.00;3.90;;;;;;;15.29;70.64;99762.77;109368;1274;139815;-56
2022/06/19 03:38:14;;;;;;;5.20;3.60;;;;;;;15.37;70.72;99764.16;109289;1274;22451;-56
2022/06/19 03:40:41;;;;;;;6.60;4.00;;;;;;;15.44;70.51;99761.70;109299;1274;138612;-56
2022/06/19 03:43:08;;;;;;;6.40;3.70;;;;;;;15.53;70.31;99760.61;109429;1274;23208;-57
2022/06/19 03:45:35;;;;;;;6.60;3.70;;;;;;;15.63;70.53;99756.27;109343;1274;22433;-56
2022/06/19 03:48:02;;;;;;;5.50;3.70;;;;;;;15.72;70.50;99752.52;109231;1274;139287;-56
2022/06/19 03:50:29;;;;;;;6.50;3.70;;;;;;;15.81;70.49;99757.52;109435;1274;23667;-57
2022/06/19 03:52:55;;;;;;;6.10;4.00;;;;;;;15.92;70.53;99758.58;109345;1274;138580;-57
2022/06/19 03:55:22;;;;;;;8.40;3.80;;;;;;;16.02;70.15;99761.52;109327;1274;22446;-58
2022/06/19 03:57:49;;;;;;;4.60;3.20;;;;;;;16.12;69.80;99762.30;109453;1274;22928;-57
2022/06/19 04:00:17;;;;;;;6.10;3.60;;;;;;;16.22;69.28;99756.55;109327;1274;138943;-57
2022/06/19 04:02:44;;;;;;;5.00;3.50;;;;;;;16.33;69.07;99754.58;109415;1274;22459;-57
2022/06/19 04:05:12;;;;;;;4.80;3.60;;;;;;;16.42;68.73;99756.87;109358;1274;138048;-56
2022/06/19 04:07:46;;;;;;;5.70;3.60;;;;;;;16.52;68.16;99756.09;109435;1273;23191;-58
2022/06/19 04:10:14;;;;;;;3.90;3.50;;;;;;;16.61;67.80;99755.23;109395;1274;24252;-56
2022/06/19 04:12:41;;;;;;;3.10;2.80;;;;;;;16.71;67.60;99756.59;109335;1274;137520;-57
2022/06/19 04:15:10;;;;;;;4.00;3.00;;;;;;;16.78;67.38;99755.73;109323;1274;22464;-54
2022/06/19 04:17:38;;;;;;;5.00;3.40;;;;;;;16.86;67.18;99757.77;109231;1274;138398;-56
2022/06/19 04:20:07;;;;;;;3.50;2.90;;;;;;;16.94;66.96;99758.27;109445;1274;22397;-56
2022/06/19 04:22:34;;;;;;;4.40;3.60;;;;;;;17.02;66.89;99763.14;109188;1274;137825;-56
2022/06/19 04:25:02;;;;;;;19.20;3.70;;;;;;;17.10;66.72;99762.92;109453;1274;23266;-57
2022/06/19 04:27:31;;;;;;;5.00;3.20;;;;;;;17.17;66.46;99762.17;109452;1274;23245;-57
2022/06/19 04:29:57;;;;;;;4.10;3.20;;;;;;;17.25;66.14;99765.25;109209;1274;139286;-56
2022/06/19 04:32:24;;;;;;;5.30;3.70;;;;;;;17.32;65.92;99764.15;109464;1274;22451;-56
2022/06/19 04:34:51;;;;;;;4.80;3.50;;;;;;;17.41;65.92;99764.99;109169;1276;138165;-56
2022/06/19 04:37:18;;;;;;;5.30;3.40;;;;;;;17.49;65.63;99759.73;109441;1274;23249;-56
2022/06/19 04:39:45;;;;;;;7.60;3.40;;;;;;;17.57;65.45;99760.45;109430;1274;22443;-56
2022/06/19 04:42:12;;;;;;;6.40;3.80;;;;;;;17.66;65.43;99755.33;109136;1276;137242;-56
2022/06/19 04:44:38;;;;;;;6.50;3.40;;;;;;;17.74;65.33;99749.70;109302;1274;22489;-56
2022/06/19 04:47:06;;;;;;;4.20;3.20;;;;;;;17.83;65.03;99752.47;109230;1274;138800;-56
2022/06/19 04:49:32;;;;;;;5.50;3.90;;;;;;;17.90;64.88;99750.65;109483;1274;23320;-56
2022/06/19 04:51:59;;;;;;;5.20;3.20;;;;;;;17.98;64.75;99752.62;109426;1274;23427;-56
2022/06/19 04:54:26;;;;;;;7.20;3.50;;;;;;;18.06;64.88;99754.19;109329;1274;137966;-57
2022/06/19 04:56:53;;;;;;;6.90;3.90;;;;;;;18.15;64.76;99750.46;109467;1274;22542;-58
2022/06/19 04:59:19;;;;;;;5.80;2.90;;;;;;;18.24;64.55;99748.64;109357;1274;137585;-57
2022/06/19 05:01:46;;;;;;;3.90;3.00;;;;;;;18.34;64.32;99756.73;109333;1274;22481;-57
2022/06/19 05:04:13;;;;;;;3.80;2.90;;;;;;;18.44;64.07;99753.80;109445;1274;22724;-57
2022/06/19 05:06:40;;;;;;;5.60;3.20;;;;;;;18.55;63.55;99755.41;109324;1274;137631;-58
2022/06/19 05:09:07;;;;;;;5.40;3.00;;;;;;;18.68;63.28;99754.42;109434;1274;24296;-57
2022/06/19 05:11:33;;;;;;;5.70;2.50;;;;;;;18.83;62.49;99757.27;109289;1274;137509;-57
2022/06/19 05:14:01;;;;;;;3.40;2.80;;;;;;;19.00;62.15;99756.42;109313;1274;22618;-57
2022/06/19 05:16:28;;;;;;;6.10;3.00;;;;;;;19.20;61.23;99755.21;109438;1274;22506;-59
2022/06/19 05:18:55;;;;;;;4.70;3.00;;;;;;;19.44;60.34;99758.06;109350;1274;139534;-58
2022/06/19 05:21:23;;;;;;;10.60;3.90;;;;;;;19.74;59.95;99755.06;109422;1274;22563;-58
2022/06/19 05:23:50;;;;;;;6.80;3.50;;;;;;;20.09;59.63;99757.57;109322;1274;137817;-58
2022/06/19 05:26:25;;;;;;;3.40;2.80;;;;;;;20.48;58.97;99755.88;109229;1275;22413;-57
2022/06/19 05:28:53;;;;;;;5.60;3.20;;;;;;;20.99;57.85;99755.60;109270;1274;139446;-57
2022/06/19 05:31:20;;;;;;;3.60;2.90;;;;;;;21.54;56.34;99760.56;109406;1274;23212;-56
2022/06/19 05:33:47;;;;;;;3.10;2.40;;;;;;;22.11;54.47;99761.59;109256;1274;22526;-56
2022/06/19 05:36:13;;;;;;;10.40;2.30;;;;;;;22.69;52.99;99765.25;109068;1276;138026;-57
2022/06/19 05:38:40;;;;;;;2.20;1.80;;;;;;;23.23;51.74;99756.13;109384;1274;22441;-56
2022/06/19 05:41:07;;;;;;;2.20;1.70;;;;;;;23.70;50.24;99759.02;109339;1274;138941;-56
2022/06/19 05:43:34;;;;;;;3.60;2.20;;;;;;;24.01;49.05;99751.19;109309;1274;23409;-58
2022/06/19 05:46:03;;;;;;;3.90;2.20;;;;;;;24.21;48.16;99756.86;109450;1274;23251;-57
2022/06/19 05:48:30;;;;;;;3.60;2.30;;;;;;;24.32;47.98;99759.74;109383;1274;138260;-57
2022/06/19 05:51:02;;;;;;;3.20;2.30;;;;;;;24.42;47.71;99760.56;109399;1274;23408;-57
2022/06/19 05:53:30;;;;;;;4.80;2.50;;;;;;;24.51;47.39;99760.36;109355;1274;137486;-57
2022/06/19 05:55:56;;;;;;;4.70;2.10;;;;;;;24.57;46.69;99761.34;108050;1274;22561;-56
2022/06/19 05:58:23;;;;;;;3.10;2.20;;;;;;;24.59;46.63;99767.48;104880;1276;22556;-57
2022/06/19 06:00:50;;;;;;;2.40;2.20;;;;;;;24.59;46.44;99767.87;109156;1274;137707;-57
2022/06/19 06:03:18;;;;;;;4.20;2.50;;;;;;;24.60;46.44;99769.87;109496;1273;22550;-57
2022/06/19 06:05:45;;;;;;;5.10;2.20;;;;;;;24.58;46.21;99769.98;109222;1274;139149;-57
2022/06/19 06:08:12;;;;;;;2.70;1.90;;;;;;;24.56;45.96;99767.04;109398;1274;22498;-57
2022/06/19 06:10:48;;;;;;;2.60;2.00;;;;;;;24.52;45.72;99764.59;109240;1274;137398;-57
2022/06/19 06:13:14;;;;;;;3.70;1.90;;;;;;;24.47;45.42;99764.80;109341;1274;23220;-57
2022/06/19 06:15:41;;;;;;;3.00;1.90;;;;;;;24.41;45.20;99763.02;109402;1274;23187;-57
2022/06/19 06:18:08;;;;;;;3.00;2.00;;;;;;;24.33;45.22;99769.67;109152;1274;137993;-57
2022/06/19 06:20:35;;;;;;;3.70;2.20;;;;;;;24.25;45.69;99765.46;109270;1274;23550;-57
2022/06/19 06:23:02;;;;;;;2.30;1.70;;;;;;;24.21;46.05;99765.22;109281;1274;137499;-57
2022/06/19 06:25:29;;;;;;;2.20;2.00;;;;;;;24.16;46.02;99767.02;109342;1274;22628;-57
2022/06/19 06:27:55;;;;;;;4.60;2.30;;;;;;;24.12;46.30;99767.25;109434;1274;22421;-57
2022/06/19 06:30:22;;;;;;;2.30;1.90;;;;;;;24.09;46.29;99767.16;109158;1274;137330;-57
2022/06/19 06:32:49;;;;;;;3.30;2.00;;;;;;;24.06;46.21;99760.38;109448;1274;23189;-57
2022/06/19 06:35:16;;;;;;;2.50;2.10;;;;;;;24.01;46.28;99759.64;109345;1274;137868;-57
2022/06/19 06:37:42;;;;;;;6.80;2.50;;;;;;;23.97;46.53;99758.05;109271;1276;22566;-57
2022/06/19 06:40:10;;;;;;;3.30;1.70;;;;;;;23.92;45.91;99767.67;109418;1274;22469;-57
2022/06/19 06:42:37;;;;;;;2.10;1.70;;;;;;;23.87;45.75;99769.35;109122;1276;137463;-57
2022/06/19 06:45:07;;;;;;;3.20;1.70;;;;;;;23.82;46.05;99763.59;109221;1275;23288;-58
2022/06/19 06:47:33;;;;;;;3.50;1.70;;;;;;;23.79;45.95;99761.67;109273;1274;137500;-57
2022/06/19 06:50:00;;;;;;;5.50;1.80;;;;;;;23.75;46.22;99757.05;109206;1275;22458;-57
2022/06/19 06:52:27;;;;;;;2.10;1.60;;;;;;;23.71;46.08;99761.20;109360;1274;22611;-56
2022/06/19 06:54:54;;;;;;;2.90;1.70;;;;;;;23.67;46.40;99765.27;109125;1275;137775;-57
2022/06/19 06:57:20;;;;;;;2.20;1.40;;;;;;;23.64;46.58;99760.16;109460;1274;22488;-56
2022/06/19 06:59:48;;;;;;;2.00;1.50;;;;;;;23.63;46.60;99763.70;109324;1274;138015;-57
2022/06/19 07:02:15;;;;;;;3.20;1.90;;;;;;;23.64;46.50;99762.21;109465;1274;23335;-56
2022/06/19 07:04:41;;;;;;;8.20;2.10;;;;;;;23.65;46.38;99754.88;109175;1276;138250;-56
2022/06/19 07:07:08;;;;;;;2.90;1.60;;;;;;;23.68;46.74;99751.23;109440;1274;23129;-56
2022/06/19 07:09:35;;;;;;;2.30;1.80;;;;;;;23.70;46.87;99750.27;109477;1274;22465;-56
2022/06/19 07:12:02;;;;;;;3.80;1.50;;;;;;;23.71;46.79;99755.17;109321;1274;137892;-57
2022/06/19 07:14:29;;;;;;;2.10;1.70;;;;;;;23.72;46.51;99746.69;109447;1274;22451;-57
2022/06/19 07:16:56;;;;;;;2.90;1.90;;;;;;;23.73;46.50;99750.15;109329;1274;138725;-58
2022/06/19 07:19:23;;;;;;;3.00;1.50;;;;;;;23.74;46.42;99745.50;109414;1274;23382;-58
2022/06/19 07:21:50;;;;;;;4.10;1.50;;;;;;;23.74;45.68;99737.88;109405;1274;22486;-58
2022/06/19 07:24:16;;;;;;;5.90;1.60;;;;;;;23.73;45.57;99732.64;109304;1274;138184;-56
2022/06/19 07:26:43;;;;;;;1.60;1.50;;;;;;;23.73;46.14;99730.11;109403;1274;22621;-57
2022/06/19 07:29:10;;;;;;;6.20;1.50;;;;;;;23.75;46.65;99723.60;109306;1274;139388;-57
2022/06/19 07:31:37;;;;;;;1.60;1.50;;;;;;;23.80;46.91;99715.66;109354;1274;22489;-57
2022/06/19 07:34:04;;;;;;;1.80;1.60;;;;;;;23.85;46.81;99716.32;109469;1274;22559;-57
2022/06/19 07:36:31;;;;;;;2.00;1.20;;;;;;;23.92;46.11;99712.94;109098;1275;137706;-57
2022/06/19 07:38:58;;;;;;;6.10;2.20;;;;;;;23.98;45.46;99714.16;109519;1274;22503;-58
2022/06/19 07:41:24;;;;;;;2.20;1.50;;;;;;;24.02;44.70;99714.89;109305;1274;137782;-58
2022/06/19 07:43:51;;;;;;;4.30;1.50;;;;;;;24.04;44.58;99711.23;109408;1274;22428;-58
2022/06/19 07:46:19;;;;;;;1.70;1.60;;;;;;;24.07;44.35;99704.64;109474;1274;22399;-57
2022/06/19 07:51:31;;;;;;;2.30;1.40;;;;;;;24.12;43.90;99700.30;109448;1274;22497;-57
2022/06/19 07:53:59;;;;;;;1.70;1.30;;;;;;;24.15;44.23;99696.60;109303;1274;137254;-58
2022/06/19 07:56:25;;;;;;;2.10;1.40;;;;;;;24.20;44.58;99694.80;109434;1273;23412;-58
2022/06/19 07:58:52;;;;;;;2.30;1.30;;;;;;;24.24;44.62;99693.76;109316;1274;137945;-58
2022/06/19 08:01:19;;;;;;;7.20;1.80;;;;;;;24.29;44.25;99693.60;109426;1274;22448;-58
2022/06/19 08:03:46;;;;;;;3.80;1.40;;;;;;;24.32;44.15;99689.66;109190;1275;22395;-58
2022/06/19 08:06:14;;;;;;;2.40;1.50;;;;;;;24.35;43.99;99691.35;109257;1274;138887;-58
2022/06/19 08:08:41;;;;;;;5.30;1.40;;;;;;;24.38;43.63;99696.15;109395;1274;23024;-58
2022/06/19 08:11:08;;;;;;;2.20;1.30;;;;;;;24.42;43.13;99695.80;109256;1274;138835;-58
2022/06/19 08:13:35;;;;;;;2.10;1.30;;;;;;;24.45;42.22;99692.33;109400;1274;22547;-58
2022/06/19 08:16:06;;;;;;;2.10;1.20;;;;;;;24.47;42.38;99691.36;109453;1274;22252;-57
2022/06/19 08:18:34;;;;;;;1.90;1.30;;;;;;;24.49;42.23;99687.53;109337;1273;138638;-58
2022/06/19 08:21:01;;;;;;;4.30;1.50;;;;;;;24.53;41.57;99687.81;109423;1274;22460;-57
2022/06/19 08:23:28;;;;;;;2.90;1.40;;;;;;;24.57;42.01;99688.41;109336;1273;138029;-57
2022/06/19 08:25:55;;;;;;;3.20;1.40;;;;;;;24.61;42.23;99688.17;109429;1273;22461;-57
2022/06/19 08:29:05;;;;;;;3.20;1.60;;;;;;;24.65;42.68;99686.25;109406;1274;22421;-57
2022/06/19 08:31:12;;;;;;;4.10;1.50;;;;;;;24.72;42.93;99694.88;109364;1274;23511;-57
2022/06/19 08:33:39;;;;;;;4.40;2.10;;;;;;;24.76;42.63;99692.00;109440;1274;23868;-57
2022/06/19 08:36:07;;;;;;;1.80;1.60;;;;;;;24.78;42.41;99686.43;109289;1274;137465;-57
2022/06/19 08:38:37;;;;;;;3.50;1.40;;;;;;;24.81;42.37;99684.36;109341;1274;23090;-56
2022/06/19 08:41:23;;;;;;;2.80;1.50;;;;;;;24.85;42.50;99685.11;109194;1274;137795;-57
2022/06/19 08:44:22;;;;;;;2.00;1.40;;;;;;;24.89;42.39;99680.17;109420;1274;23845;-57
2022/06/19 08:47:16;;;;;;;2.50;1.50;;;;;;;24.95;42.01;99675.61;109223;1274;137931;-56
2022/06/19 08:49:59;;;;;;;2.20;1.50;;;;;;;25.00;41.42;99682.70;109454;1274;22431;-58
2022/06/19 08:53:02;;;;;;;3.60;1.50;;;;;;;25.05;41.46;99681.96;109401;1274;22444;-58
2022/06/19 08:55:45;;;;;;;1.50;1.40;;;;;;;25.09;41.07;99682.02;109378;1274;23073;-58
2022/06/19 08:58:12;;;;;;;3.20;1.50;;;;;;;25.11;41.25;99686.21;109413;1274;22455;-58
2022/06/19 09:00:49;;;;;;;1.50;1.30;;;;;;;25.13;41.12;99677.49;109215;1276;139484;-56
2022/06/19 09:03:20;;;;;;;3.70;1.10;;;;;;;25.13;41.32;99671.05;109312;1274;22477;-57
2022/06/19 09:06:01;;;;;;;3.40;1.60;;;;;;;25.15;41.36;99676.52;109228;1273;137600;-58
2022/06/19 09:08:47;;;;;;;2.10;1.60;;;;;;;25.17;41.44;99679.56;109290;1274;22464;-57
2022/06/19 09:11:36;;;;;;;1.50;1.40;;;;;;;25.19;41.00;99676.05;109339;1274;139613;-58
2022/06/19 09:14:22;;;;;;;2.50;1.40;;;;;;;25.22;41.16;99669.29;109346;1274;22415;-58
2022/06/19 09:17:00;;;;;;;2.10;1.00;;;;;;;25.25;40.79;99662.98;109212;1274;140232;-57
2022/06/19 09:19:51;;;;;;;1.60;1.20;;;;;;;25.26;40.70;99661.42;109378;1274;23214;-57
2022/06/19 09:22:37;;;;;;;2.40;1.40;;;;;;;25.29;41.11;99657.76;109364;1274;22445;-57
2022/06/19 09:25:27;;;;;;;1.80;1.30;;;;;;;25.33;41.62;99659.34;109429;1274;22464;-57
2022/06/19 09:28:01;;;;;;;2.60;1.30;;;;;;;25.38;41.40;99650.31;108986;1279;22439;-58
2022/06/19 09:31:00;;;;;;;3.30;1.70;;;;;;;25.42;41.42;99651.30;108802;1280;137977;-57
2022/06/19 09:33:39;;;;;;;2.00;1.50;;;;;;;25.47;40.48;99648.41;109037;1278;22684;-57
2022/06/19 09:36:15;;;;;;;2.90;1.20;;;;;;;25.48;40.11;99642.77;108925;1280;138345;-57
2022/06/19 09:39:18;;;;;;;3.10;1.40;;;;;;;25.50;39.78;99639.57;109002;1280;22585;-56
2022/06/19 09:41:56;;;;;;;4.40;1.50;;;;;;;25.52;39.84;99640.77;103722;1288;138280;-55
2022/06/19 09:44:33;;;;;;;2.70;1.40;;;;;;;25.56;40.18;99636.31;108136;1287;22475;-56
2022/06/19 09:47:14;;;;;;;2.80;1.80;;;;;;;25.60;40.39;99633.41;107847;1288;137442;-57
2022/06/19 09:49:49;;;;;;;1.80;1.40;;;;;;;25.63;40.37;99630.03;108026;1287;23384;-56
2022/06/19 09:52:26;;;;;;;2.90;1.80;;;;;;;25.65;40.22;99630.16;107863;1287;22561;-56
2022/06/19 09:55:20;;;;;;;3.30;2.10;;;;;;;25.71;40.36;99630.96;107946;1287;138353;-57
2022/06/19 09:57:52;;;;;;;6.80;1.50;;;;;;;25.76;40.18;99629.43;108006;1287;22557;-57
2022/06/19 10:00:26;;;;;;;4.00;1.50;;;;;;;25.81;40.40;99632.04;108089;1286;139080;-57
2022/06/19 10:03:24;;;;;;;2.30;1.60;;;;;;;25.86;40.01;99626.81;108145;1287;22433;-57
2022/06/19 10:05:54;;;;;;;1.80;1.30;;;;;;;25.88;40.29;99630.09;108281;1282;137368;-57
2022/06/19 10:08:31;;;;;;;1.70;1.40;;;;;;;25.91;40.34;99638.47;108506;1282;22471;-57
2022/06/19 10:11:08;;;;;;;1.40;1.30;;;;;;;25.95;40.00;99645.92;108403;1282;138414;-57
2022/06/19 10:15:54;;;;;;;1.40;1.30;;;;;;;26.03;38.99;99639.42;102028;1309;545311;-56
2022/06/19 10:18:35;;;;;;;1.60;1.20;;;;;;;26.02;39.06;99642.66;108090;1286;137137;-57
2022/06/19 10:21:06;;;;;;;2.30;1.50;;;;;;;26.05;39.88;99642.98;107708;1289;22475;-58
2022/06/19 10:23:50;;;;;;;2.50;1.80;;;;;;;26.08;40.43;99644.27;107886;1289;136765;-58
2022/06/19 10:26:24;;;;;;;2.60;1.60;;;;;;;26.15;40.10;99647.14;107872;1290;22454;-58
2022/06/19 10:28:55;;;;;;;4.40;1.40;;;;;;;26.20;39.60;99646.25;107754;1286;226472;-58
2022/06/19 10:31:40;;;;;;;5.10;1.50;;;;;;;26.22;39.28;99642.08;108012;1287;22464;-58
2022/06/19 10:34:07;;;;;;;1.80;1.30;;;;;;;26.24;39.37;99637.27;108121;1287;22448;-58
2022/06/19 10:37:13;;;;;;;2.00;1.30;;;;;;;26.26;39.03;99641.36;108014;1288;138407;-58
2022/06/19 10:40:03;;;;;;;3.40;1.60;;;;;;;26.30;39.20;99638.71;108152;1286;22457;-57
2022/06/19 10:42:32;;;;;;;4.90;1.40;;;;;;;26.31;38.83;99633.72;108013;1285;136861;-57
2022/06/19 10:45:27;;;;;;;1.60;1.40;;;;;;;26.32;38.90;99639.98;108308;1286;22970;-57
2022/06/19 10:48:22;;;;;;;4.80;2.00;;;;;;;26.35;39.21;99639.17;108062;1287;137676;-57
2022/06/19 10:51:07;;;;;;;2.30;1.40;;;;;;;26.38;39.30;99635.10;108088;1287;22479;-58
2022/06/19 10:53:44;;;;;;;4.90;1.70;;;;;;;26.41;39.55;99634.04;108484;1280;137930;-58
2022/06/19 10:56:16;;;;;;;3.50;1.90;;;;;;;26.45;39.48;99634.36;108818;1280;22528;-58
2022/06/19 10:58:45;;;;;;;3.80;1.70;;;;;;;26.49;38.84;99637.75;108797;1280;138066;-58
2022/06/19 11:04:06;;;;;;;5.70;1.80;;;;;;;26.52;38.42;99626.73;108981;1280;22465;-58
2022/06/19 11:04:08;;;;;;;2.00;1.20;;;;;;;26.53;38.63;99620.71;108985;1279;22447;-58
2022/06/19 11:06:40;;;;;;;2.40;1.40;;;;;;;26.55;38.53;99622.09;108545;1280;136924;-70
2022/06/19 11:09:09;;;;;;;3.60;1.80;;;;;;;26.58;38.64;99621.91;108828;1280;22521;-70
2022/06/19 11:11:37;;;;;;;3.50;1.50;;;;;;;26.61;38.28;99616.80;108384;1281;137109;-70
2022/06/19 11:14:10;;;;;;;5.90;1.90;;;;;;;26.62;38.02;99616.76;108956;1279;22369;-69
2022/06/19 11:16:56;;;;;;;2.80;1.60;;;;;;;26.65;38.21;99605.01;108618;1280;137629;-59
2022/06/19 11:19:42;;;;;;;4.00;1.50;;;;;;;26.69;38.26;99613.58;109007;1279;22465;-58
2022/06/19 11:22:31;;;;;;;3.40;1.50;;;;;;;26.74;38.29;99612.73;109044;1278;23231;-60
2022/06/19 11:25:16;;;;;;;3.40;1.50;;;;;;;26.78;38.20;99604.50;108836;1277;22491;-59
2022/06/19 11:27:50;;;;;;;2.30;1.60;;;;;;;26.80;38.19;99590.58;109018;1277;22342;-60
2022/06/19 11:30:31;;;;;;;9.40;1.80;;;;;;;26.82;37.97;99594.23;109042;1277;136921;-60
2022/06/19 11:32:57;;;;;;;3.10;1.50;;;;;;;26.83;37.93;99598.33;109015;1279;22479;-59
2022/06/19 11:35:24;;;;;;;4.40;1.50;;;;;;;26.84;38.23;99595.45;108875;1280;137972;-59
2022/06/19 11:37:56;;;;;;;2.10;1.60;;;;;;;26.87;38.17;99596.96;108963;1278;22704;-59
2022/06/19 11:40:35;;;;;;;1.50;1.40;;;;;;;26.89;37.98;99594.23;108916;1278;22403;-60
2022/06/19 11:43:03;;;;;;;6.70;1.80;;;;;;;26.91;38.15;99594.83;108914;1279;23637;-59
2022/06/19 11:45:37;;;;;;;3.40;1.60;;;;;;;26.93;38.58;99586.73;108313;1279;22586;-59
2022/06/19 11:48:12;;;;;;;7.20;2.20;;;;;;;26.95;38.46;99579.45;104614;1279;137648;-59